Time;durP1;ratioP1;P1;durP2;ratioP2;P2;SDS_P1;SDS_P2;PMS_P1;PMS_P2;Temp;Humidity;BMP_temperature;BMP_pressure;BME280_temperature;BME280_humidity;BME280_pressure;Samples;Min_cycle;Max_cycle;Signal;HPM_P1;HPM_P2
2023/03/24 00:01:10;;;;;;;;;5.50;3.00;;;;;15.82;68.98;99828.09;6278161;22;45352;-68
2023/03/24 00:03:36;;;;;;;;;4.50;3.50;;;;;15.78;68.80;99821.19;6277631;22;45518;-68
2023/03/24 00:06:04;;;;;;;;;4.25;4.00;;;;;15.82;68.64;99816.44;6278358;22;45322;-68
2023/03/24 00:08:35;;;;;;;;;3.50;2.75;;;;;15.86;68.77;99826.91;6278080;22;45467;-68
2023/03/24 00:11:03;;;;;;;;;2.50;2.50;;;;;15.85;68.74;99813.53;6250254;22;45335;-69
2023/03/24 00:13:30;;;;;;;;;5.00;4.00;;;;;15.92;68.58;99848.00;6276522;22;46199;-68
2023/03/24 00:15:57;;;;;;;;;5.00;3.75;;;;;15.88;68.67;99842.94;6278087;22;45304;-68
2023/03/24 00:18:24;;;;;;;;;3.50;3.50;;;;;15.92;68.83;99848.00;6277671;22;45389;-68
2023/03/24 00:20:57;;;;;;;;;4.00;4.00;;;;;15.83;68.66;99834.31;6278000;22;45275;-68
2023/03/24 00:23:23;;;;;;;;;4.50;3.50;;;;;15.94;68.54;99850.59;6277621;22;45473;-68
2023/03/24 00:26:01;;;;;;;;;3.75;3.00;;;;;15.96;68.66;99850.50;6278343;22;45305;-68
2023/03/24 00:28:27;;;;;;;;;2.50;2.50;;;;;15.86;68.68;99836.81;6277574;22;45362;-68
2023/03/24 00:30:53;;;;;;;;;3.00;3.00;;;;;15.91;68.97;99842.75;6278183;22;45459;-68
2023/03/24 00:33:19;;;;;;;;;4.50;2.50;;;;;15.97;68.64;99849.50;6276680;22;46174;-68
2023/03/24 00:35:44;;;;;;;;;2.00;2.00;;;;;15.95;68.76;99843.38;6277608;22;45317;-68
2023/03/24 00:38:09;;;;;;;;;3.75;3.00;;;;;15.98;68.68;99854.78;6278091;22;45300;-68
2023/03/24 00:40:35;;;;;;;;;3.25;3.25;;;;;15.93;68.76;99841.66;6250247;22;45599;-68
2023/03/24 00:43:00;;;;;;;;;3.25;3.00;;;;;15.94;68.75;99845.22;6276880;22;45515;-68
2023/03/24 00:45:28;;;;;;;;;2.00;2.00;;;;;15.97;68.97;99865.66;6277792;22;45208;-68
2023/03/24 00:47:56;;;;;;;;;3.25;3.25;;;;;15.99;68.63;99875.38;6277427;22;45269;-68
2023/03/24 00:50:25;;;;;;;;;2.00;2.00;;;;;15.98;69.04;99873.63;6277513;22;45332;-68
2023/03/24 00:52:52;;;;;;;;;2.75;2.75;;;;;15.99;68.82;99882.56;6277556;22;45302;-68
2023/03/24 00:55:17;;;;;;;;;3.00;3.00;;;;;15.98;68.87;99888.94;6278176;22;45277;-68
2023/03/24 00:57:49;;;;;;;;;3.00;3.00;;;;;16.01;68.49;99884.19;6277965;22;45204;-68
2023/03/24 01:00:25;;;;;;;;;4.00;4.00;;;;;16.00;68.77;99885.16;6277898;22;45312;-68
2023/03/24 01:02:53;;;;;;;;;2.00;2.00;;;;;16.02;68.64;99887.75;6277419;22;45475;-68
2023/03/24 01:05:24;;;;;;;;;5.00;3.25;;;;;15.98;68.86;99875.47;6277597;22;45240;-68
2023/03/24 01:07:55;;;;;;;;;3.00;3.00;;;;;16.04;68.53;99883.13;6277795;22;45354;-68
2023/03/24 01:10:25;;;;;;;;;3.25;3.00;;;;;16.01;68.76;99875.25;6277637;22;45381;-68
2023/03/24 01:12:51;;;;;;;;;4.25;3.00;;;;;15.93;68.69;99859.63;6276821;22;45491;-68
2023/03/24 01:15:20;;;;;;;;;3.00;3.00;;;;;16.06;68.71;99868.59;6277743;22;45196;-68
2023/03/24 01:17:47;;;;;;;;;2.00;2.00;;;;;15.99;68.55;99864.59;6277416;22;45208;-68
2023/03/24 01:20:13;;;;;;;;;3.00;3.00;;;;;15.85;68.17;99844.00;6277813;22;45409;-68
2023/03/24 01:22:43;;;;;;;;;2.50;2.50;;;;;16.06;68.28;99881.19;6277241;22;46190;-68
2023/03/24 01:25:18;;;;;;;;;3.00;3.00;;;;;16.04;68.19;99888.53;6250148;22;45272;-68
2023/03/24 01:27:45;;;;;;;;;3.25;2.25;;;;;16.04;68.44;99872.38;6249551;22;45327;-68
2023/03/24 01:30:14;;;;;;;;;2.25;2.00;;;;;15.98;68.33;99853.94;6249409;22;45638;-68
2023/03/24 01:32:39;;;;;;;;;3.50;3.50;;;;;15.98;68.22;99865.56;6276697;22;45334;-68
2023/03/24 01:35:05;;;;;;;;;2.50;2.00;;;;;15.87;68.49;99851.97;6277593;22;45492;-68
2023/03/24 01:37:30;;;;;;;;;3.00;3.00;;;;;15.94;68.22;99864.06;6277707;22;45380;-68
2023/03/24 01:39:56;;;;;;;;;3.25;2.00;;;;;15.91;68.03;99859.72;6278060;22;45197;-68
2023/03/24 01:42:25;;;;;;;;;2.00;2.00;;;;;16.01;67.99;99878.81;6277270;22;45723;-68
2023/03/24 01:44:56;;;;;;;;;2.00;2.00;;;;;15.78;68.01;99844.53;6277462;22;45425;-68
2023/03/24 01:47:21;;;;;;;;;2.00;2.00;;;;;16.02;68.40;99875.16;6277411;22;45225;-68
2023/03/24 01:49:52;;;;;;;;;2.50;2.50;;;;;15.91;68.27;99867.81;6277765;22;45395;-68
2023/03/24 01:52:28;;;;;;;;;2.50;2.50;;;;;15.92;68.03;99874.03;6277535;22;46524;-68
2023/03/24 01:55:01;;;;;;;;;2.50;2.00;;;;;16.06;67.93;99898.19;6275698;22;45341;-68
2023/03/24 01:57:34;;;;;;;;;1.00;1.00;;;;;15.97;67.96;99884.50;6277252;22;45257;-68
2023/03/24 02:00:08;;;;;;;;;3.75;2.75;;;;;16.10;67.87;99909.63;6277452;22;45285;-68
2023/03/24 02:02:34;;;;;;;;;3.50;2.50;;;;;16.01;68.01;99889.56;6276621;22;45416;-68
2023/03/24 02:05:04;;;;;;;;;2.75;2.75;;;;;15.73;67.82;99834.06;6277228;22;45462;-68
2023/03/24 02:07:35;;;;;;;;;6.50;5.25;;;;;16.06;68.02;99883.88;6277299;22;45403;-68
2023/03/24 02:10:06;;;;;;;;;4.00;4.00;;;;;16.07;67.75;99874.81;6277656;22;45690;-68
2023/03/24 02:12:31;;;;;;;;;3.00;3.00;;;;;16.03;67.98;99868.78;6276721;22;45396;-68
2023/03/24 02:14:58;;;;;;;;;2.00;2.00;;;;;16.06;67.86;99867.72;6248921;22;45515;-68
2023/03/24 02:17:28;;;;;;;;;2.00;2.00;;;;;16.10;67.98;99869.22;6277271;22;45264;-68
2023/03/24 02:20:28;;;;;;;;;1.75;1.75;;;;;16.08;67.93;99846.94;6277390;22;45303;-68
2023/03/24 02:23:03;;;;;;;;;2.75;2.75;;;;;16.10;67.89;99880.00;6277159;22;45357;-68
2023/03/24 02:25:37;;;;;;;;;2.75;2.75;;;;;16.07;68.01;99889.16;6277672;22;45479;-68
2023/03/24 02:28:12;;;;;;;;;3.50;3.50;;;;;16.07;68.07;99882.91;6277264;22;45335;-68
2023/03/24 02:31:10;;;;;;;;;3.00;3.00;;;;;16.06;68.08;99890.13;6249542;22;45438;-68
2023/03/24 02:34:07;;;;;;;;;1.75;1.25;;;;;16.05;68.05;99901.84;6277447;22;45345;-68
2023/03/24 02:37:00;;;;;;;;;3.50;3.00;;;;;16.03;68.24;99906.47;6275083;22;45293;-68
2023/03/24 02:39:32;;;;;;;;;3.00;2.25;;;;;16.05;68.30;99906.38;6275483;22;45592;-68
2023/03/24 02:42:12;;;;;;;;;4.25;3.50;;;;;15.99;68.22;99904.09;6274839;22;45350;-68
2023/03/24 02:44:40;;;;;;;;;2.50;2.50;;;;;16.07;68.26;99918.78;6275199;22;45462;-68
2023/03/24 02:47:24;;;;;;;;;3.25;2.50;;;;;16.01;68.16;99907.56;6274912;22;45378;-68
2023/03/24 02:49:50;;;;;;;;;1.00;1.00;;;;;16.05;68.13;99904.53;6275511;22;45322;-68
2023/03/24 02:52:51;;;;;;;;;1.00;1.00;;;;;16.05;68.14;99907.22;6274607;22;45411;-68
2023/03/24 02:55:26;;;;;;;;;5.00;3.00;;;;;15.98;68.10;99900.56;6220352;22;46512;-68
2023/03/24 02:58:00;;;;;;;;;3.25;2.50;;;;;15.66;67.96;99844.38;6275063;22;45264;-68
2023/03/24 03:00:37;;;;;;;;;1.00;1.00;;;;;16.03;67.90;99903.78;6275302;22;45603;-68
2023/03/24 03:03:18;;;;;;;;;2.50;2.00;;;;;15.84;67.76;99874.59;6272055;22;45677;-68
2023/03/24 03:05:53;;;;;;;;;3.00;1.25;;;;;15.86;67.96;99879.88;6275124;22;46489;-68
2023/03/24 03:08:21;;;;;;;;;3.25;2.00;;;;;15.89;67.55;99887.75;6274642;22;45347;-68
2023/03/24 03:10:50;;;;;;;;;1.50;1.00;;;;;15.78;67.21;99885.75;6274907;22;45332;-68
2023/03/24 03:13:42;;;;;;;;;1.50;1.00;;;;;15.95;67.62;99924.13;6273889;22;45268;-68
2023/03/24 03:16:37;;;;;;;;;1.50;1.00;;;;;15.83;67.48;99905.13;6271487;22;45363;-68
2023/03/24 03:19:08;;;;;;;;;1.00;1.00;;;;;15.89;67.56;99920.88;6274798;22;45471;-68
2023/03/24 03:21:38;;;;;;;;;1.75;1.75;;;;;15.97;67.64;99933.84;6246723;22;45284;-68
2023/03/24 03:24:14;;;;;;;;;1.00;1.00;;;;;15.65;67.28;99879.44;6272776;22;45423;-68
2023/03/24 03:26:41;;;;;;;;;1.50;1.50;;;;;15.89;67.03;99928.09;6274560;22;45931;-68
2023/03/24 03:29:30;;;;;;;;;1.00;1.00;;;;;15.93;67.04;99938.53;6274834;22;45267;-68
2023/03/24 03:32:06;;;;;;;;;2.25;2.00;;;;;15.89;67.29;99936.19;6273890;22;45289;-68
2023/03/24 03:34:54;;;;;;;;;1.00;1.00;;;;;15.88;66.92;99937.13;6224604;22;1135127;-68
2023/03/24 03:37:42;;;;;;;;;0.00;0.00;;;;;15.86;66.44;99948.00;6276731;22;45399;-68
2023/03/24 03:40:13;;;;;;;;;0.00;0.00;;;;;15.83;66.68;99941.97;6248799;22;45441;-68
2023/03/24 03:42:39;;;;;;;;;0.75;0.25;;;;;15.73;66.37;99941.69;6276634;22;45398;-68
2023/03/24 03:45:08;;;;;;;;;0.50;0.50;;;;;15.78;66.24;99958.41;6277193;22;45320;-68
2023/03/24 03:47:34;;;;;;;;;0.00;0.00;;;;;15.71;66.20;99943.63;6274402;22;47845;-68
2023/03/24 03:50:00;;;;;;;;;3.00;1.00;;;;;15.63;65.71;99925.28;6276937;22;45312;-68
2023/03/24 03:52:25;;;;;;;;;0.00;0.00;;;;;15.73;65.87;99953.28;6274904;22;45343;-68
2023/03/24 03:54:52;;;;;;;;;1.00;0.00;;;;;15.69;65.39;99948.25;6278278;22;45236;-68
2023/03/24 03:57:19;;;;;;;;;1.50;1.25;;;;;15.55;65.25;99917.75;6277648;22;46277;-68
2023/03/24 03:59:44;;;;;;;;;1.00;1.00;;;;;15.63;65.24;99944.09;6278291;22;45396;-68
2023/03/24 04:02:51;;;;;;;;;2.00;1.00;;;;;15.66;65.05;99968.13;6277970;22;45315;-68
2023/03/24 04:05:28;;;;;;;;;1.00;0.00;;;;;15.63;64.96;99975.53;6250273;22;45597;-68
2023/03/24 04:08:18;;;;;;;;;0.50;0.00;;;;;15.63;64.81;99970.16;6278218;22;45295;-68
2023/03/24 04:11:05;;;;;;;;;2.00;1.00;;;;;15.57;65.02;99961.53;6277925;22;45306;-68
2023/03/24 04:13:45;;;;;;;;;1.00;0.00;;;;;15.49;64.96;99952.25;6277908;22;45391;-68
2023/03/24 04:16:28;;;;;;;;;3.00;0.50;;;;;15.45;64.83;99945.31;6250437;22;45248;-68
2023/03/24 04:19:24;;;;;;;;;1.00;0.00;;;;;15.56;64.63;99970.56;6277774;22;45337;-67
2023/03/24 04:21:57;;;;;;;;;1.00;1.00;;;;;15.45;64.35;99962.34;6277591;22;45284;-68
2023/03/24 04:24:49;;;;;;;;;2.00;0.00;;;;;15.57;64.41;99979.50;6278386;22;45333;-68
2023/03/24 04:27:50;;;;;;;;;1.00;1.00;;;;;15.53;64.25;99980.66;6277758;22;45307;-68
2023/03/24 04:30:36;;;;;;;;;0.00;0.00;;;;;15.52;64.26;99995.09;6277602;22;46182;-68
2023/03/24 04:33:08;;;;;;;;;0.00;0.00;;;;;15.44;64.14;99983.97;6277928;22;45789;-68
2023/03/24 04:35:39;;;;;;;;;0.75;0.25;;;;;15.50;63.70;99994.28;6277708;22;46572;-68
2023/03/24 04:38:26;;;;;;;;;0.75;0.50;;;;;15.50;63.42;100005.06;6277547;22;45415;-68
2023/03/24 04:40:55;;;;;;;;;1.00;1.00;;;;;15.41;63.30;100000.28;6250247;22;48149;-67
2023/03/24 04:43:25;;;;;;;;;2.00;1.75;;;;;15.35;63.48;99990.75;6250281;22;45323;-68
2023/03/24 04:45:56;;;;;;;;;0.00;0.00;;;;;15.38;63.62;100002.22;6250682;22;45485;-68
2023/03/24 04:48:24;;;;;;;;;1.50;0.25;;;;;15.42;63.67;100005.56;6277026;22;45322;-68
2023/03/24 04:51:02;;;;;;;;;3.75;1.00;;;;;15.46;63.65;100020.53;6277460;22;45447;-68
2023/03/24 04:53:28;;;;;;;;;1.00;0.75;;;;;15.43;63.80;100007.28;6278067;22;45328;-68
2023/03/24 04:56:06;;;;;;;;;0.75;0.75;;;;;15.48;63.83;100017.75;6278089;22;45214;-68
2023/03/24 04:58:32;;;;;;;;;2.00;0.00;;;;;15.42;63.76;100018.13;6249463;22;45393;-68
2023/03/24 05:00:57;;;;;;;;;1.25;1.00;;;;;15.40;63.96;100020.91;6277776;22;45315;-68
2023/03/24 05:03:24;;;;;;;;;1.00;1.00;;;;;15.08;63.84;99983.50;6277852;22;45310;-68
2023/03/24 05:05:49;;;;;;;;;2.00;1.00;;;;;15.40;64.05;100037.06;6277231;22;45473;-68
2023/03/24 05:08:16;;;;;;;;;0.50;0.00;;;;;15.39;63.98;100046.09;6277351;22;45497;-68
2023/03/24 05:10:42;;;;;;;;;0.00;0.00;;;;;15.21;64.10;100025.75;6277147;22;47065;-68
2023/03/24 05:13:08;;;;;;;;;2.00;1.00;;;;;15.22;64.10;100031.03;6278072;22;45241;-68
2023/03/24 05:15:34;;;;;;;;;2.50;1.00;;;;;15.11;64.09;100020.94;6278279;22;45256;-68
2023/03/24 05:17:59;;;;;;;;;0.50;0.00;;;;;15.14;64.26;100044.94;6277250;22;45292;-67
2023/03/24 05:20:25;;;;;;;;;0.00;0.00;;;;;15.11;64.28;100050.50;6277744;22;45363;-68
2023/03/24 05:22:51;;;;;;;;;1.00;1.00;;;;;15.09;64.41;100051.59;6278026;22;45753;-68
2023/03/24 05:25:17;;;;;;;;;0.00;0.00;;;;;15.11;64.44;100057.72;6278076;22;45541;-68
2023/03/24 05:27:43;;;;;;;;;0.75;0.00;;;;;15.15;64.44;100065.50;6277096;22;45257;-68
2023/03/24 05:30:09;;;;;;;;;0.50;0.50;;;;;15.10;64.12;100070.31;6277442;22;45384;-67
2023/03/24 05:32:35;;;;;;;;;2.50;0.00;;;;;14.99;64.49;100056.66;6249226;22;45418;-68
2023/03/24 05:35:01;;;;;;;;;1.00;1.00;;;;;15.11;64.31;100079.22;6276557;22;45268;-68
2023/03/24 05:37:26;;;;;;;;;1.00;1.00;;;;;15.08;64.33;100066.81;6277468;22;45197;-68
2023/03/24 05:39:52;;;;;;;;;0.00;0.00;;;;;15.04;63.78;100078.75;6276980;22;45951;-68
2023/03/24 05:42:19;;;;;;;;;4.75;1.00;;;;;15.02;63.89;100086.03;6277632;22;45276;-68
2023/03/24 05:44:45;;;;;;;;;2.25;1.00;;;;;14.77;63.97;100041.84;6277909;22;45344;-68
2023/03/24 05:47:14;;;;;;;;;2.25;0.75;;;;;14.95;63.82;100077.50;6276974;22;45250;-68
2023/03/24 05:49:42;;;;;;;;;3.75;0.25;;;;;14.92;63.82;100074.13;6249083;22;48347;-68
2023/03/24 05:52:09;;;;;;;;;4.50;2.00;;;;;15.01;63.83;100089.69;6277682;22;45193;-68
2023/03/24 05:54:35;;;;;;;;;3.00;1.00;;;;;14.92;64.18;100080.34;6278042;22;45328;-68
2023/03/24 05:57:01;;;;;;;;;1.00;1.00;;;;;15.00;64.00;100096.88;6249744;22;45743;-68
2023/03/24 05:59:27;;;;;;;;;1.00;1.00;;;;;14.84;63.84;100074.59;6277407;22;45371;-68
2023/03/24 06:01:55;;;;;;;;;2.75;2.00;;;;;14.93;63.80;100100.03;6277728;22;45331;-68
2023/03/24 06:04:21;;;;;;;;;2.75;1.75;;;;;14.84;64.03;100095.22;6277621;22;45394;-68
2023/03/24 06:06:47;;;;;;;;;2.75;0.00;;;;;14.78;63.80;100086.59;6277669;22;45603;-68
2023/03/24 06:09:14;;;;;;;;;1.00;1.00;;;;;14.78;63.98;100105.38;6277235;22;45323;-68
2023/03/24 06:11:39;;;;;;;;;2.00;1.00;;;;;14.89;63.94;100136.97;6276733;22;45302;-68
2023/03/24 06:14:06;;;;;;;;;2.50;1.00;;;;;14.71;63.68;100114.75;6277464;22;45181;-68
2023/03/24 06:16:32;;;;;;;;;2.00;2.00;;;;;14.87;63.59;100141.56;6276104;22;45363;-68
2023/03/24 06:18:59;;;;;;;;;2.00;1.00;;;;;14.78;63.63;100137.63;6277285;22;46156;-68
2023/03/24 06:21:29;;;;;;;;;2.00;1.00;;;;;14.58;63.60;100098.47;6277358;22;45471;-68
2023/03/24 06:23:56;;;;;;;;;0.00;0.00;;;;;14.88;63.54;100153.19;6277504;22;45272;-68
2023/03/24 06:26:21;;;;;;;;;1.00;1.00;;;;;14.80;63.23;100151.81;6274850;22;45514;-68
2023/03/24 06:28:50;;;;;;;;;3.00;1.00;;;;;14.76;62.92;100152.94;6277217;22;45279;-67
2023/03/24 06:31:18;;;;;;;;;0.75;0.00;;;;;14.45;63.67;100122.50;6275771;22;45317;-68
2023/03/24 06:33:43;;;;;;;;;2.00;0.00;;;;;14.74;63.25;100171.00;6277015;22;45354;-66
2023/03/24 06:36:11;;;;;;;;;0.50;0.50;;;;;14.72;63.38;100183.66;6274644;22;58299;-66
2023/03/24 06:38:36;;;;;;;;;3.00;0.00;;;;;14.62;63.45;100164.50;6276728;22;45740;-66
2023/03/24 06:41:03;;;;;;;;;4.50;1.00;;;;;14.70;63.34;100182.88;6277320;22;45357;-66
2023/03/24 06:43:29;;;;;;;;;0.50;0.50;;;;;14.61;63.57;100175.34;6277614;22;45307;-66
2023/03/24 06:45:55;;;;;;;;;1.25;0.00;;;;;14.68;63.24;100191.97;6276863;22;45280;-66
2023/03/24 06:48:20;;;;;;;;;0.50;0.50;;;;;14.58;63.12;100170.13;6276669;22;45323;-66
2023/03/24 06:50:46;;;;;;;;;1.50;1.00;;;;;14.62;63.33;100194.06;6277383;22;45758;-66
2023/03/24 06:53:11;;;;;;;;;1.00;0.00;;;;;14.60;63.10;100195.09;6277536;22;45533;-66
2023/03/24 06:55:36;;;;;;;;;2.25;1.00;;;;;14.55;63.56;100187.28;6274486;22;45343;-68
2023/03/24 06:58:02;;;;;;;;;2.00;1.00;;;;;14.49;63.04;100184.09;6274823;22;45660;-66
2023/03/24 07:00:28;;;;;;;;;1.00;0.75;;;;;14.44;63.51;100198.63;6247997;22;45307;-66
2023/03/24 07:02:54;;;;;;;;;1.25;0.75;;;;;14.44;63.84;100205.84;6248984;22;45276;-66
2023/03/24 07:05:20;;;;;;;;;1.00;0.00;;;;;14.36;63.71;100194.66;6276025;22;45247;-66
2023/03/24 07:07:46;;;;;;;;;0.75;0.75;;;;;14.46;63.57;100212.84;6275497;22;46195;-66
2023/03/24 07:10:12;;;;;;;;;1.25;1.00;;;;;14.27;63.36;100185.31;6249414;22;45387;-65
2023/03/24 07:12:38;;;;;;;;;1.00;1.00;;;;;14.38;63.26;100219.59;6249170;22;45531;-66
2023/03/24 07:15:06;;;;;;;;;2.00;1.00;;;;;14.34;63.51;100218.91;6273721;22;45351;-66
2023/03/24 07:17:31;;;;;;;;;1.00;1.00;;;;;14.34;63.37;100212.69;6274904;22;45995;-67
2023/03/24 07:19:57;;;;;;;;;0.00;0.00;;;;;14.38;63.16;100225.84;6275128;22;45423;-66
2023/03/24 07:22:22;;;;;;;;;2.25;1.25;;;;;14.31;63.54;100210.16;6277155;22;45260;-66
2023/03/24 07:24:48;;;;;;;;;3.00;0.50;;;;;14.39;63.46;100235.63;6277118;22;45542;-67
2023/03/24 07:27:13;;;;;;;;;1.25;0.25;;;;;14.41;63.73;100238.22;6272589;22;45692;-67
2023/03/24 07:29:38;;;;;;;;;5.25;1.25;;;;;14.34;63.52;100223.44;6250293;22;45557;-67
2023/03/24 07:32:04;;;;;;;;;3.50;2.00;;;;;14.41;63.86;100236.41;6277851;22;45186;-67
2023/03/24 07:34:30;;;;;;;;;5.00;1.00;;;;;14.38;63.92;100241.06;6277449;22;45693;-67
2023/03/24 07:36:56;;;;;;;;;1.00;1.00;;;;;14.35;63.41;100226.03;6276932;22;45201;-67
2023/03/24 07:39:21;;;;;;;;;2.50;1.50;;;;;14.36;63.42;100251.91;6277086;22;45764;-67
2023/03/24 07:41:47;;;;;;;;;2.00;1.75;;;;;14.42;63.12;100248.88;6277991;22;45428;-67
2023/03/24 07:44:12;;;;;;;;;2.75;1.75;;;;;14.35;63.38;100250.19;6276489;22;45466;-66
2023/03/24 07:46:38;;;;;;;;;3.00;1.00;;;;;14.37;63.23;100240.22;6275878;22;46062;-67
2023/03/24 07:49:04;;;;;;;;;1.75;1.00;;;;;14.37;63.00;100252.78;6275482;22;45310;-67
2023/03/24 07:51:29;;;;;;;;;1.50;0.75;;;;;14.38;63.16;100243.75;6274995;22;45360;-67
2023/03/24 07:53:55;;;;;;;;;2.50;1.00;;;;;14.37;63.24;100234.84;6275556;22;46226;-67
2023/03/24 07:56:21;;;;;;;;;3.25;2.00;;;;;14.36;63.27;100235.78;6276695;22;46160;-66
2023/03/24 07:58:46;;;;;;;;;2.25;1.25;;;;;14.54;62.71;100243.78;6277547;22;45335;-67
2023/03/24 08:01:12;;;;;;;;;3.00;2.25;;;;;14.45;62.82;100245.19;6277503;22;45259;-67
2023/03/24 08:03:39;;;;;;;;;3.00;1.25;;;;;14.56;62.67;100258.84;6277675;22;45489;-67
2023/03/24 08:06:06;;;;;;;;;0.25;0.25;;;;;14.46;62.39;100236.16;6249938;22;47338;-67
2023/03/24 08:08:32;;;;;;;;;2.75;0.00;;;;;14.55;62.52;100249.06;6277029;22;45420;-67
2023/03/24 08:10:57;;;;;;;;;0.50;0.50;;;;;14.65;62.43;100265.56;6272473;22;45339;-67
2023/03/24 08:13:23;;;;;;;;;1.00;1.00;;;;;14.56;62.26;100261.53;6276682;22;45833;-67
2023/03/24 08:15:48;;;;;;;;;1.75;1.00;;;;;14.57;62.26;100254.34;6249384;22;46612;-67
2023/03/24 08:18:15;;;;;;;;;1.00;0.50;;;;;14.68;62.44;100269.88;6276512;22;45506;-67
2023/03/24 08:20:42;;;;;;;;;3.00;2.00;;;;;14.64;62.07;100253.06;6276275;22;45604;-67
2023/03/24 08:23:08;;;;;;;;;1.50;1.00;;;;;14.66;61.58;100264.59;6247972;22;45377;-67
2023/03/24 08:25:35;;;;;;;;;3.25;2.00;;;;;14.56;61.92;100241.88;6276452;22;46521;-66
2023/03/24 08:28:00;;;;;;;;;4.25;2.00;;;;;14.60;62.00;100248.81;6276668;22;45308;-68
2023/03/24 08:30:27;;;;;;;;;0.00;0.00;;;;;14.72;61.70;100266.06;6277110;22;45643;-68
2023/03/24 08:33:00;;;;;;;;;4.50;1.50;;;;;14.72;61.84;100271.44;6276599;22;45721;-68
2023/03/24 08:35:32;;;;;;;;;1.75;1.75;;;;;14.74;61.27;100281.13;6275895;22;45484;-68
2023/03/24 08:38:00;;;;;;;;;1.50;0.50;;;;;14.73;60.78;100279.41;6277292;22;45214;-67
2023/03/24 08:40:28;;;;;;;;;2.50;0.50;;;;;14.82;61.05;100283.41;6248743;22;45515;-67
2023/03/24 08:42:56;;;;;;;;;2.25;2.00;;;;;14.77;61.00;100285.47;6276847;22;45439;-66
2023/03/24 08:45:26;;;;;;;;;1.25;1.25;;;;;14.70;60.95;100274.22;6248783;22;47799;-67
2023/03/24 08:47:52;;;;;;;;;3.50;1.25;;;;;14.87;61.00;100294.75;6275112;22;45316;-68
2023/03/24 08:50:20;;;;;;;;;2.25;1.00;;;;;14.91;61.09;100298.13;6248331;22;45453;-67
2023/03/24 08:52:47;;;;;;;;;2.25;2.25;;;;;14.88;61.03;100295.59;6275232;22;45553;-68
2023/03/24 08:55:14;;;;;;;;;2.00;1.00;;;;;14.89;61.09;100289.28;6249280;22;47756;-68
2023/03/24 08:57:39;;;;;;;;;2.00;1.00;;;;;14.91;61.11;100287.38;6248559;22;45380;-68
2023/03/24 09:00:14;;;;;;;;;2.00;1.00;;;;;15.00;60.77;100305.63;6249486;22;45289;-68
2023/03/24 09:02:53;;;;;;;;;2.00;1.00;;;;;15.10;60.34;100308.66;6248957;22;45444;-69
2023/03/24 09:05:20;;;;;;;;;5.00;1.50;;;;;15.04;60.42;100306.34;6276696;22;45403;-67
2023/03/24 09:07:47;;;;;;;;;5.00;0.75;;;;;15.03;60.15;100312.66;6248327;22;45510;-69
2023/03/24 09:10:14;;;;;;;;;3.00;2.00;;;;;15.16;60.45;100327.13;6249391;22;45295;-67
2023/03/24 09:12:40;;;;;;;;;2.50;1.00;;;;;15.14;60.21;100316.47;6274402;22;45346;-68
2023/03/24 09:15:08;;;;;;;;;1.25;0.00;;;;;15.01;60.05;100299.31;6277517;22;45351;-68
2023/03/24 09:17:34;;;;;;;;;3.25;1.00;;;;;15.01;59.70;100283.19;6275799;22;45623;-66
2023/03/24 09:20:00;;;;;;;;;1.00;1.00;;;;;15.15;59.37;100317.31;6276785;22;45445;-67
2023/03/24 09:22:26;;;;;;;;;2.50;2.00;;;;;15.24;59.54;100326.69;6249873;22;45399;-67
2023/03/24 09:24:51;;;;;;;;;5.00;2.00;;;;;15.08;59.71;100289.94;6248892;22;45736;-67
2023/03/24 09:27:17;;;;;;;;;1.00;1.00;;;;;15.29;59.46;100329.97;6276227;22;45286;-67
2023/03/24 09:29:42;;;;;;;;;3.75;2.00;;;;;15.17;59.22;100310.06;6249397;22;45214;-67
2023/03/24 09:32:08;;;;;;;;;1.50;1.00;;;;;15.28;59.11;100326.41;6276879;22;45406;-67
2023/03/24 09:34:35;;;;;;;;;3.00;2.00;;;;;15.26;59.41;100314.88;6277098;22;45303;-74
2023/03/24 09:37:00;;;;;;;;;1.25;1.00;;;;;15.10;58.44;100297.91;6278130;22;45470;-69
2023/03/24 09:39:26;;;;;;;;;2.75;1.25;;;;;15.40;57.85;100359.78;6248849;22;45294;-73
2023/03/24 09:41:54;;;;;;;;;1.00;1.00;;;;;15.34;56.67;100341.34;6278926;22;45580;-75
2023/03/24 09:44:35;;;;;;;;;3.00;1.00;;;;;15.17;57.43;100310.06;6251489;22;47388;-66
2023/03/24 09:47:23;;;;;;;;;2.75;1.75;;;;;15.34;57.11;100350.25;6248194;22;45495;-65
2023/03/24 09:49:51;;;;;;;;;3.75;1.00;;;;;15.28;57.00;100334.47;6275722;22;45350;-67
2023/03/24 09:52:26;;;;;;;;;1.75;0.75;;;;;15.36;57.27;100342.09;6272851;22;45698;-67
2023/03/24 09:54:57;;;;;;;;;2.75;1.00;;;;;15.44;57.17;100347.03;6275276;22;45632;-67
2023/03/24 09:57:32;;;;;;;;;2.00;1.50;;;;;15.48;57.15;100340.50;6275217;22;45268;-68
2023/03/24 09:59:57;;;;;;;;;2.25;1.00;;;;;15.42;57.22;100328.31;6275920;22;45402;-67
2023/03/24 10:02:27;;;;;;;;;1.25;1.25;;;;;15.31;57.15;100309.22;6276367;22;45505;-68
2023/03/24 10:04:52;;;;;;;;;0.75;0.25;;;;;15.54;56.47;100346.38;6276461;22;45539;-67
2023/03/24 10:07:33;;;;;;;;;1.00;1.00;;;;;15.57;56.48;100350.72;6275721;22;45268;-67
2023/03/24 10:09:59;;;;;;;;;1.75;1.75;;;;;15.19;56.24;100279.41;6276790;22;45388;-67
2023/03/24 10:12:36;;;;;;;;;1.00;1.00;;;;;15.47;56.42;100325.31;6248694;22;45576;-68
2023/03/24 10:15:11;;;;;;;;;2.50;1.75;;;;;15.57;56.58;100353.44;6248730;22;46209;-67
2023/03/24 10:17:56;;;;;;;;;2.75;2.00;;;;;15.64;56.88;100360.16;6275470;22;45209;-67
2023/03/24 10:20:40;;;;;;;;;6.75;3.50;;;;;15.66;56.86;100355.56;6272618;22;45398;-67
2023/03/24 10:23:42;;;;;;;;;2.75;1.75;;;;;15.57;56.61;100338.13;6248581;22;45351;-67
2023/03/24 10:26:45;;;;;;;;;5.00;2.25;;;;;15.81;57.33;100355.63;6276502;22;46288;-67
2023/03/24 10:29:38;;;;;;;;;3.50;2.50;;;;;15.86;56.72;100358.91;6276887;22;45365;-67
2023/03/24 10:32:24;;;;;;;;;3.00;1.50;;;;;15.91;56.60;100371.13;6273519;22;45637;-67
2023/03/24 10:34:58;;;;;;;;;4.50;1.00;;;;;15.91;55.30;100365.72;6276299;22;45263;-67
2023/03/24 10:37:24;;;;;;;;;2.75;0.75;;;;;15.86;55.45;100362.47;6247436;22;47074;-67
2023/03/24 10:39:50;;;;;;;;;1.00;1.00;;;;;15.71;55.06;100331.91;6277057;22;45489;-67
2023/03/24 10:42:22;;;;;;;;;5.75;1.75;;;;;15.85;54.51;100347.25;6248859;22;45404;-67
2023/03/24 10:44:49;;;;;;;;;1.00;1.00;;;;;15.70;55.20;100332.91;6276866;22;45407;-67
2023/03/24 10:47:19;;;;;;;;;2.75;1.00;;;;;15.75;55.00;100319.13;6275531;22;46717;-67
2023/03/24 10:49:53;;;;;;;;;2.75;1.50;;;;;15.80;55.27;100318.91;6276262;22;45299;-67
2023/03/24 10:52:19;;;;;;;;;3.25;1.00;;;;;15.92;54.98;100342.38;6276093;22;45307;-67
2023/03/24 10:55:06;;;;;;;;;3.00;0.25;;;;;16.05;54.77;100358.63;6273825;22;45945;-68
2023/03/24 10:57:32;;;;;;;;;2.50;0.75;;;;;16.05;54.84;100351.41;6275598;22;46962;-68
2023/03/24 11:00:08;;;;;;;;;4.00;1.50;;;;;16.01;54.73;100332.88;6247437;22;45506;-67
2023/03/24 11:02:36;;;;;;;;;1.00;0.50;;;;;15.99;54.21;100329.41;6276242;22;45315;-68
2023/03/24 11:05:21;;;;;;;;;2.50;1.00;;;;;16.16;54.15;100347.22;6276651;22;45525;-67
2023/03/24 11:07:49;;;;;;;;;4.00;1.00;;;;;16.19;54.55;100352.41;6277190;22;45648;-67
2023/03/24 11:10:17;;;;;;;;;1.00;1.00;;;;;16.26;53.27;100369.94;6277571;22;45426;-67
2023/03/24 11:13:04;;;;;;;;;3.25;1.25;;;;;16.08;53.92;100326.16;6277700;22;45349;-69
2023/03/24 11:15:35;;;;;;;;;1.00;0.75;;;;;16.21;53.71;100348.66;6277763;22;45246;-66
2023/03/24 11:18:15;;;;;;;;;6.25;2.25;;;;;16.10;54.21;100327.81;6274573;22;46731;-68
2023/03/24 11:20:49;;;;;;;;;2.25;1.00;;;;;16.21;53.80;100340.59;6277687;22;45213;-69
2023/03/24 11:23:33;;;;;;;;;0.00;0.00;;;;;16.32;53.64;100347.13;6277910;22;45325;-68
2023/03/24 11:26:04;;;;;;;;;4.00;1.00;;;;;16.38;52.97;100352.13;6277244;22;45183;-69
2023/03/24 11:28:36;;;;;;;;;0.75;0.50;;;;;16.22;52.80;100315.41;6275900;22;45367;-68
2023/03/24 11:31:06;;;;;;;;;2.00;1.00;;;;;16.39;52.82;100340.38;6249211;22;45335;-69
2023/03/24 11:33:35;;;;;;;;;2.25;1.00;;;;;16.47;52.71;100354.22;6277099;22;45585;-68
2023/03/24 11:36:22;;;;;;;;;1.00;1.00;;;;;16.28;51.22;100315.00;6276653;22;45428;-68
2023/03/24 11:39:02;;;;;;;;;1.50;1.00;;;;;16.43;52.86;100337.41;6242938;22;45619;-69
2023/03/24 11:41:28;;;;;;;;;1.25;1.00;;;;;16.32;53.60;100322.88;6277200;22;45268;-68
2023/03/24 11:44:12;;;;;;;;;3.75;1.00;;;;;16.55;52.53;100351.06;6249902;22;45276;-69
2023/03/24 11:46:42;;;;;;;;;0.50;0.50;;;;;16.55;52.60;100335.75;6277413;22;45533;-69